Time;durP1;ratioP1;P1;durP2;ratioP2;P2;SDS_P1;SDS_P2;PMS_P1;PMS_P2;Temp;Humidity;BMP_temperature;BMP_pressure;BME280_temperature;BME280_humidity;BME280_pressure;Samples;Min_cycle;Max_cycle;Signal;HPM_P1;HPM_P2
2022/01/27 00:02:11;;;;;;;28.75;10.75;;;8.20;99.90;;;;;;5061970;28;20032;-71
2022/01/27 00:04:47;;;;;;;25.85;11.15;;;8.10;99.90;;;;;;5062014;28;20021;-69
2022/01/27 00:07:13;;;;;;;27.92;11.30;;;8.10;99.90;;;;;;5061834;28;20013;-71
2022/01/27 00:10:09;;;;;;;29.25;10.35;;;8.20;99.90;;;;;;5063221;28;20029;-70
2022/01/27 00:12:33;;;;;;;25.35;10.35;;;8.20;99.90;;;;;;5062786;28;20043;-70
2022/01/27 00:15:09;;;;;;;23.95;10.18;;;8.20;99.90;;;;;;5061040;28;20463;-70
2022/01/27 00:17:40;;;;;;;27.13;11.88;;;8.30;99.90;;;;;;5063334;28;20071;-69
2022/01/27 00:20:06;;;;;;;30.08;11.68;;;8.30;99.90;;;;;;5061785;28;20078;-69
2022/01/27 00:22:32;;;;;;;28.38;11.30;;;8.30;99.90;;;;;;5062308;28;20039;-68
2022/01/27 00:24:58;;;;;;;27.30;11.48;;;8.30;99.90;;;;;;5063155;28;20025;-69
2022/01/27 00:27:23;;;;;;;29.70;11.80;;;8.20;99.90;;;;;;5061292;28;20017;-71
2022/01/27 00:29:49;;;;;;;30.25;12.07;;;8.20;99.90;;;;;;5062326;28;20024;-68
2022/01/27 00:32:14;;;;;;;26.80;14.30;;;8.20;99.90;;;;;;5063160;28;20402;-71
2022/01/27 00:34:40;;;;;;;25.58;11.73;;;8.10;99.90;;;;;;5060879;28;20017;-68
2022/01/27 00:37:07;;;;;;;30.20;13.07;;;8.10;99.90;;;;;;5062933;28;20077;-68
2022/01/27 00:39:32;;;;;;;29.88;13.02;;;8.10;99.90;;;;;;5055096;28;20043;-68
2022/01/27 00:41:58;;;;;;;29.13;13.07;;;8.10;99.90;;;;;;5033931;28;20037;-69
2022/01/27 00:44:23;;;;;;;31.02;13.10;;;8.00;99.90;;;;;;5052536;28;20119;-68
2022/01/27 00:46:49;;;;;;;25.45;12.48;;;8.00;99.90;;;;;;5033373;28;20048;-68
2022/01/27 00:49:15;;;;;;;29.02;11.57;;;8.00;99.90;;;;;;5052486;28;20490;-68
2022/01/27 00:51:45;;;;;;;28.13;12.20;;;8.00;99.90;;;;;;5064250;28;20029;-68
2022/01/27 00:54:18;;;;;;;33.80;12.90;;;7.90;99.90;;;;;;5054519;28;20052;-68
2022/01/27 00:56:53;;;;;;;33.17;14.50;;;7.80;99.90;;;;;;5072486;28;20094;-68
2022/01/27 01:02:05;;;;;;;28.58;12.98;;;7.70;99.90;;;;;;5072321;28;20024;-68
2022/01/27 01:04:35;;;;;;;32.65;13.52;;;7.60;99.90;;;;;;5071180;28;20534;-67
2022/01/27 01:07:01;;;;;;;32.97;13.73;;;7.40;99.90;;;;;;5075356;28;20038;-67
2022/01/27 01:14:43;;;;;;;35.65;14.75;;;7.40;99.90;;;;;;5076537;28;20040;-68
2022/01/27 01:17:28;;;;;;;32.47;14.45;;;7.30;99.90;;;;;;5076429;28;20036;-69
2022/01/27 01:20:08;;;;;;;34.22;13.95;;;7.30;99.90;;;;;;5076381;28;20449;-68
2022/01/27 01:30:51;;;;;;;28.13;12.13;;;7.20;99.90;;;;;;5076373;28;20142;-68
2022/01/27 01:33:22;;;;;;;34.65;13.60;;;7.20;99.90;;;;;;5076226;28;20042;-68
2022/01/27 01:35:50;;;;;;;30.77;12.85;;;7.20;99.90;;;;;;5076017;28;20020;-68
2022/01/27 01:38:19;;;;;;;35.28;15.27;;;7.10;99.90;;;;;;5075953;28;20029;-68
2022/01/27 01:40:50;;;;;;;30.48;12.80;;;7.20;99.90;;;;;;5076016;28;20436;-69
2022/01/27 01:43:17;;;;;;;32.93;13.87;;;7.10;99.90;;;;;;5075916;28;20028;-68
2022/01/27 01:45:44;;;;;;;29.55;11.40;;;7.10;99.90;;;;;;5075515;28;20276;-69
2022/01/27 01:48:11;;;;;;;29.50;12.00;;;7.20;99.90;;;;;;5075573;28;20366;-69
2022/01/27 01:50:38;;;;;;;30.27;12.38;;;7.20;99.90;;;;;;5057491;28;20055;-69
2022/01/27 01:53:04;;;;;;;29.70;11.30;;;7.20;99.90;;;;;;5075917;28;20473;-69
2022/01/27 01:55:32;;;;;;;31.52;11.75;;;7.20;99.90;;;;;;5075671;28;20135;-69
2022/01/27 01:57:59;;;;;;;33.63;12.90;;;7.20;99.90;;;;;;5075496;28;20035;-69
2022/01/27 02:00:26;;;;;;;30.92;11.90;;;7.20;99.90;;;;;;5075814;28;20481;-69
2022/01/27 02:02:51;;;;;;;32.88;12.15;;;7.30;99.90;;;;;;5075579;28;20028;-69
2022/01/27 02:05:21;;;;;;;30.73;13.10;;;7.30;99.90;;;;;;5075465;28;20351;-68
2022/01/27 02:08:26;;;;;;;31.13;13.05;;;7.30;99.90;;;;;;5075593;28;20028;-69
2022/01/27 02:19:20;;;;;;;34.75;11.57;;;7.50;99.90;;;;;;5074694;28;20048;-69
2022/01/27 02:22:01;;;;;;;34.13;11.57;;;7.50;99.90;;;;;;5057182;28;20029;-70
2022/01/27 02:24:30;;;;;;;36.90;13.70;;;7.50;99.90;;;;;;5075121;28;20063;-69
2022/01/27 02:26:57;;;;;;;38.90;13.10;;;7.50;99.90;;;;;;5075161;28;20028;-69
2022/01/27 02:29:24;;;;;;;30.27;11.65;;;7.60;99.90;;;;;;5074847;28;20471;-69
2022/01/27 02:31:52;;;;;;;30.27;11.70;;;7.60;99.90;;;;;;5074954;28;20032;-69
2022/01/27 02:34:18;;;;;;;28.20;10.43;;;7.60;99.90;;;;;;5075086;28;20033;-69
2022/01/27 02:36:44;;;;;;;37.08;11.20;;;7.70;99.90;;;;;;5056788;28;20055;-69
2022/01/27 02:39:11;;;;;;;26.02;10.45;;;7.70;99.90;;;;;;5074902;28;20025;-69
2022/01/27 02:41:49;;;;;;;24.85;9.93;;;7.70;99.90;;;;;;5075039;28;20056;-70
2022/01/27 02:44:34;;;;;;;31.17;10.55;;;7.60;99.90;;;;;;5074759;28;20050;-69
2022/01/27 02:47:00;;;;;;;26.85;10.57;;;7.60;99.90;;;;;;5074693;28;20024;-69
2022/01/27 02:49:26;;;;;;;31.25;10.25;;;7.60;99.90;;;;;;5074641;28;20063;-69
2022/01/27 02:51:52;;;;;;;30.80;9.93;;;7.60;99.90;;;;;;5074583;28;20082;-69
2022/01/27 02:54:18;;;;;;;28.77;11.07;;;7.70;99.90;;;;;;5074351;28;20042;-69
2022/01/27 02:56:46;;;;;;;29.60;10.13;;;7.70;99.90;;;;;;5074541;28;20040;-69
2022/01/27 02:59:14;;;;;;;33.53;11.38;;;7.70;99.90;;;;;;5074639;28;20024;-68
2022/01/27 03:01:40;;;;;;;32.50;10.23;;;7.70;99.90;;;;;;5074488;28;20028;-69
2022/01/27 03:04:05;;;;;;;29.40;8.82;;;7.70;99.90;;;;;;5074373;28;20032;-68
2022/01/27 03:06:31;;;;;;;30.88;10.18;;;7.80;99.90;;;;;;5074603;28;20031;-69
2022/01/27 03:08:57;;;;;;;25.05;9.65;;;7.80;99.90;;;;;;5074114;28;20034;-69
2022/01/27 03:11:33;;;;;;;26.27;9.25;;;7.90;99.90;;;;;;5074214;28;20461;-69
2022/01/27 03:13:59;;;;;;;32.95;10.07;;;7.90;99.90;;;;;;5074365;28;20107;-68
2022/01/27 03:16:25;;;;;;;32.80;9.05;;;7.90;99.90;;;;;;5074336;28;20120;-69
2022/01/27 03:18:50;;;;;;;29.58;8.95;;;7.90;99.90;;;;;;5073784;28;20021;-68
2022/01/27 03:21:16;;;;;;;37.33;10.82;;;8.00;99.90;;;;;;5054409;28;20032;-69
2022/01/27 03:23:42;;;;;;;28.08;8.77;;;8.10;99.90;;;;;;5053698;28;20388;-69
2022/01/27 03:26:07;;;;;;;32.47;8.73;;;8.00;99.90;;;;;;5053975;28;20021;-68
2022/01/27 03:28:33;;;;;;;25.35;8.25;;;8.10;99.90;;;;;;5053580;28;20048;-68
2022/01/27 03:30:59;;;;;;;29.45;9.32;;;8.10;99.90;;;;;;5053809;28;20032;-69
2022/01/27 03:33:24;;;;;;;24.75;8.80;;;8.10;99.90;;;;;;5035847;28;20033;-68
2022/01/27 03:35:50;;;;;;;24.33;8.73;;;8.10;99.90;;;;;;5053908;28;20029;-67
2022/01/27 03:38:15;;;;;;;24.15;8.00;;;8.20;99.90;;;;;;5052830;28;20131;-68
2022/01/27 03:40:41;;;;;;;31.52;9.18;;;8.20;99.90;;;;;;5053627;28;20033;-67
2022/01/27 03:43:09;;;;;;;23.23;9.07;;;8.20;99.90;;;;;;5053779;28;20428;-69
2022/01/27 03:45:35;;;;;;;25.70;9.95;;;8.30;99.90;;;;;;5053465;28;20083;-69
2022/01/27 03:48:02;;;;;;;24.63;9.00;;;8.30;99.90;;;;;;5035494;28;20356;-68
2022/01/27 03:50:27;;;;;;;26.15;7.80;;;8.30;99.90;;;;;;5052812;28;20175;-68
2022/01/27 03:52:53;;;;;;;22.77;8.48;;;8.30;99.90;;;;;;5053589;28;20467;-68
2022/01/27 03:55:18;;;;;;;31.45;8.45;;;8.30;99.90;;;;;;5035370;28;20036;-69
2022/01/27 03:57:44;;;;;;;29.05;9.10;;;8.40;99.90;;;;;;5053319;28;20048;-69
2022/01/27 04:00:11;;;;;;;24.85;9.50;;;8.30;99.90;;;;;;5052475;28;20047;-68
2022/01/27 04:02:40;;;;;;;24.23;7.43;;;8.30;99.90;;;;;;5053220;28;20529;-68
2022/01/27 04:05:07;;;;;;;29.23;8.63;;;8.30;99.90;;;;;;5052975;28;20118;-67
2022/01/27 04:07:32;;;;;;;29.42;8.52;;;8.30;99.90;;;;;;5053188;28;20025;-68
2022/01/27 04:09:58;;;;;;;32.40;8.70;;;8.30;99.90;;;;;;5053411;28;20531;-68
2022/01/27 04:12:24;;;;;;;28.35;8.93;;;8.30;99.90;;;;;;5053176;28;20037;-67
2022/01/27 04:14:49;;;;;;;26.58;9.43;;;8.40;99.90;;;;;;5052820;28;20051;-68
2022/01/27 04:17:15;;;;;;;31.17;9.38;;;8.40;99.90;;;;;;5052943;28;20045;-68
2022/01/27 04:19:40;;;;;;;26.67;8.88;;;8.40;99.90;;;;;;5052735;28;20085;-69
2022/01/27 04:22:06;;;;;;;28.88;7.95;;;8.40;99.90;;;;;;5053107;28;20467;-68
2022/01/27 04:24:31;;;;;;;24.85;9.00;;;8.40;99.90;;;;;;5052950;28;20020;-68
2022/01/27 04:27:03;;;;;;;30.70;9.88;;;8.40;99.90;;;;;;5053281;28;20025;-68
2022/01/27 04:29:32;;;;;;;;;;;8.50;99.90;;;;;;5053213;28;20025;-68
2022/01/27 04:32:00;;;;;;;27.17;7.85;;;8.50;99.90;;;;;;5052912;28;19905;-69
2022/01/27 04:34:26;;;;;;;23.77;7.93;;;8.40;99.90;;;;;;5052764;28;20136;-68
2022/01/27 04:36:54;;;;;;;23.02;7.35;;;8.40;99.90;;;;;;5051893;28;20530;-67
2022/01/27 04:39:33;;;;;;;23.65;7.53;;;8.40;99.90;;;;;;5052596;28;20029;-67
2022/01/27 04:42:07;;;;;;;28.42;7.68;;;8.40;99.90;;;;;;5052080;28;20021;-68
2022/01/27 04:44:39;;;;;;;24.10;8.18;;;8.40;99.90;;;;;;5052841;28;20017;-66
2022/01/27 04:47:14;;;;;;;22.17;7.50;;;8.50;99.90;;;;;;5052587;28;20021;-68
2022/01/27 04:49:40;;;;;;;34.00;8.00;;;8.50;99.90;;;;;;5052333;28;20122;-67
2022/01/27 04:52:07;;;;;;;24.65;6.82;;;8.50;99.90;;;;;;5052546;28;20037;-67
2022/01/27 04:54:48;;;;;;;26.35;8.10;;;8.60;99.90;;;;;;5052467;28;20032;-68
2022/01/27 04:57:13;;;;;;;30.25;8.55;;;8.60;99.90;;;;;;5052298;28;20036;-68
2022/01/27 04:59:42;;;;;;;29.23;8.65;;;8.50;99.90;;;;;;5052294;28;20159;-69
2022/01/27 05:02:16;;;;;;;28.15;8.43;;;8.50;99.90;;;;;;5052433;28;20066;-68
2022/01/27 05:04:43;;;;;;;28.15;8.23;;;8.50;99.90;;;;;;5034603;28;20367;-68
2022/01/27 05:07:08;;;;;;;34.03;8.85;;;8.50;99.90;;;;;;5052220;28;20528;-68
2022/01/27 05:09:34;;;;;;;33.67;8.18;;;8.50;99.90;;;;;;5052208;28;20029;-69
2022/01/27 05:12:11;;;;;;;28.45;7.43;;;8.60;99.90;;;;;;5052283;28;20493;-69
2022/01/27 05:14:37;;;;;;;27.27;7.55;;;8.60;99.90;;;;;;5052398;28;20024;-69
2022/01/27 05:17:03;;;;;;;29.85;7.80;;;8.60;99.90;;;;;;5033952;28;20390;-68
2022/01/27 05:19:28;;;;;;;29.45;7.45;;;8.60;99.90;;;;;;5052339;28;20035;-68
2022/01/27 05:21:54;;;;;;;29.20;8.82;;;8.60;99.90;;;;;;5052490;28;20017;-69
2022/01/27 05:24:20;;;;;;;20.33;7.00;;;8.60;99.90;;;;;;5051246;28;20029;-68
2022/01/27 05:26:45;;;;;;;26.30;7.50;;;8.60;99.90;;;;;;5052210;28;20043;-68
2022/01/27 05:29:11;;;;;;;30.55;8.23;;;8.60;99.90;;;;;;5051687;28;20033;-67
2022/01/27 05:31:38;;;;;;;27.42;7.63;;;8.70;99.90;;;;;;5052279;28;20029;-69
2022/01/27 05:34:04;;;;;;;27.20;7.13;;;8.70;99.90;;;;;;5051932;28;20052;-68
2022/01/27 05:36:31;;;;;;;29.40;8.30;;;8.60;99.90;;;;;;5051724;28;20501;-69
2022/01/27 05:38:56;;;;;;;29.65;8.32;;;8.70;99.90;;;;;;5051749;28;20037;-68
2022/01/27 05:41:22;;;;;;;29.15;7.60;;;8.70;99.90;;;;;;5052186;28;20027;-68
2022/01/27 05:43:48;;;;;;;21.52;6.80;;;8.70;99.90;;;;;;5052317;28;20040;-68
2022/01/27 05:46:13;;;;;;;30.33;7.78;;;8.80;99.90;;;;;;5051773;28;20478;-69
2022/01/27 05:48:39;;;;;;;26.98;7.40;;;8.80;99.90;;;;;;5051920;28;20025;-69
2022/01/27 05:51:04;;;;;;;25.90;7.65;;;8.90;99.90;;;;;;5052273;28;20029;-69
2022/01/27 05:53:32;;;;;;;30.92;8.88;;;8.80;99.90;;;;;;5055341;28;20029;-69
2022/01/27 05:55:58;;;;;;;29.20;7.90;;;8.80;99.90;;;;;;5055289;28;20044;-69
2022/01/27 05:58:25;;;;;;;25.30;7.85;;;8.80;99.90;;;;;;5037739;28;20028;-68
2022/01/27 06:00:51;;;;;;;29.33;8.00;;;8.80;99.90;;;;;;5037753;28;20032;-68
2022/01/27 06:03:16;;;;;;;29.77;7.55;;;8.80;99.90;;;;;;5055671;28;20406;-69
2022/01/27 06:05:42;;;;;;;27.00;7.40;;;8.80;99.90;;;;;;5055733;28;20126;-68
2022/01/27 06:08:08;;;;;;;28.25;8.15;;;8.80;99.90;;;;;;5055359;28;20024;-68
2022/01/27 06:10:33;;;;;;;28.85;8.35;;;8.80;99.90;;;;;;5054878;28;20494;-68
2022/01/27 06:12:59;;;;;;;27.58;8.13;;;8.80;99.90;;;;;;5055340;28;20053;-68
2022/01/27 06:15:26;;;;;;;25.05;7.72;;;8.80;99.90;;;;;;5055348;28;20025;-68
2022/01/27 06:17:52;;;;;;;28.67;7.50;;;8.80;99.90;;;;;;5055519;28;20490;-69
2022/01/27 06:20:19;;;;;;;25.70;7.88;;;8.80;99.90;;;;;;5055415;28;20040;-68
2022/01/27 06:22:46;;;;;;;39.35;8.50;;;8.80;99.90;;;;;;5055288;28;20083;-68
2022/01/27 06:25:14;;;;;;;29.33;7.55;;;8.80;99.90;;;;;;5055531;28;20086;-70
2022/01/27 06:27:40;;;;;;;31.83;7.43;;;8.80;99.90;;;;;;5055323;28;20025;-70
2022/01/27 06:30:08;;;;;;;34.33;8.07;;;8.80;99.90;;;;;;5055160;28;20025;-70
2022/01/27 06:32:34;;;;;;;31.52;7.72;;;8.80;99.90;;;;;;5055105;28;20024;-70
2022/01/27 06:35:03;;;;;;;27.08;7.47;;;8.80;99.90;;;;;;5054117;28;20029;-69
2022/01/27 06:37:30;;;;;;;30.23;9.20;;;8.80;99.90;;;;;;5036961;28;20135;-72
2022/01/27 06:39:56;;;;;;;22.88;7.90;;;8.70;99.90;;;;;;5055282;28;20467;-72
2022/01/27 06:42:21;;;;;;;26.65;8.10;;;8.60;99.90;;;;;;5036761;28;20036;-69
2022/01/27 06:44:47;;;;;;;33.03;8.98;;;8.60;99.90;;;;;;5036887;28;20029;-70
2022/01/27 06:47:13;;;;;;;30.10;7.25;;;8.60;99.90;;;;;;5054888;28;20032;-71
2022/01/27 06:49:38;;;;;;;26.52;7.32;;;8.70;99.90;;;;;;5054200;28;20049;-72
2022/01/27 06:52:05;;;;;;;29.75;7.65;;;8.70;99.90;;;;;;5054693;28;20032;-70
2022/01/27 06:54:31;;;;;;;28.98;7.70;;;8.70;99.90;;;;;;5054948;28;20074;-73
2022/01/27 06:56:57;;;;;;;32.83;9.90;;;8.70;99.90;;;;;;5054593;28;20060;-73
2022/01/27 06:59:22;;;;;;;29.10;8.15;;;8.60;99.90;;;;;;5054662;28;20485;-72
2022/01/27 07:01:48;;;;;;;30.00;8.43;;;8.60;99.90;;;;;;5055021;28;20036;-71
2022/01/27 07:04:14;;;;;;;33.08;8.80;;;8.60;99.90;;;;;;5054025;28;20033;-75
2022/01/27 07:06:39;;;;;;;32.40;9.05;;;8.60;99.90;;;;;;5054369;28;20036;-73
2022/01/27 07:09:05;;;;;;;31.38;9.13;;;8.60;99.90;;;;;;5054290;28;20036;-73
2022/01/27 07:11:31;;;;;;;36.22;10.32;;;8.50;99.90;;;;;;5054369;28;20060;-73
2022/01/27 07:13:57;;;;;;;34.47;10.20;;;8.50;99.90;;;;;;5054415;28;20482;-72
2022/01/27 07:16:22;;;;;;;31.27;8.30;;;8.50;99.90;;;;;;5054515;28;20041;-73
2022/01/27 07:18:48;;;;;;;30.40;8.85;;;8.50;99.90;;;;;;5054065;28;20029;-71
2022/01/27 07:21:13;;;;;;;38.35;8.82;;;8.50;99.90;;;;;;5054115;28;20061;-73
2022/01/27 07:23:39;;;;;;;30.85;9.50;;;8.40;99.90;;;;;;5054230;28;20137;-71
2022/01/27 07:26:05;;;;;;;30.38;7.90;;;8.50;99.90;;;;;;5054125;28;20520;-73
2022/01/27 07:28:31;;;;;;;32.10;9.13;;;8.50;99.90;;;;;;5053958;28;20032;-71
2022/01/27 07:30:56;;;;;;;33.63;9.23;;;8.50;99.90;;;;;;5053906;28;20029;-72
2022/01/27 07:33:22;;;;;;;31.48;8.70;;;8.50;99.90;;;;;;5054058;28;20738;-73
2022/01/27 07:35:48;;;;;;;29.58;7.82;;;8.60;99.90;;;;;;5053700;28;20048;-71
2022/01/27 07:38:13;;;;;;;34.97;8.60;;;8.60;99.90;;;;;;5053925;28;20075;-70
2022/01/27 07:40:39;;;;;;;31.08;8.85;;;8.60;99.90;;;;;;5053804;28;20119;-71
2022/01/27 07:43:05;;;;;;;29.52;8.73;;;8.60;99.90;;;;;;5053761;28;20036;-71
2022/01/27 07:45:30;;;;;;;38.08;8.68;;;8.60;99.90;;;;;;5053428;28;20025;-71
2022/01/27 07:47:57;;;;;;;33.47;8.25;;;8.60;99.90;;;;;;5035326;28;20029;-75
2022/01/27 07:50:28;;;;;;;30.83;7.45;;;8.60;99.90;;;;;;5053127;28;20179;-75
2022/01/27 07:52:54;;;;;;;31.90;8.40;;;8.60;99.90;;;;;;5053485;28;20029;-73
2022/01/27 07:55:19;;;;;;;30.23;7.82;;;8.70;99.90;;;;;;5053139;28;20025;-75
2022/01/27 07:57:45;;;;;;;34.28;9.02;;;8.60;99.90;;;;;;5052867;28;20051;-75
2022/01/27 08:00:11;;;;;;;34.60;8.13;;;8.60;99.90;;;;;;5053272;28;20397;-74
2022/01/27 08:02:37;;;;;;;33.20;8.30;;;8.60;99.90;;;;;;5052942;28;20052;-75
2022/01/27 08:05:03;;;;;;;30.60;8.40;;;8.60;99.90;;;;;;5035099;28;20061;-71
2022/01/27 08:07:28;;;;;;;32.53;7.57;;;8.60;99.90;;;;;;5053063;28;20489;-71
2022/01/27 08:09:54;;;;;;;31.20;7.45;;;8.60;99.90;;;;;;5052996;28;20064;-73
2022/01/27 08:12:19;;;;;;;33.63;7.97;;;8.60;99.90;;;;;;5053009;28;20033;-74
2022/01/27 08:14:45;;;;;;;26.67;6.95;;;8.70;99.90;;;;;;5053014;28;20028;-72
2022/01/27 08:17:11;;;;;;;32.67;7.60;;;8.70;99.90;;;;;;5052549;28;20041;-71
2022/01/27 08:19:36;;;;;;;26.40;8.05;;;8.70;99.90;;;;;;5035222;28;20025;-70
2022/01/27 08:22:02;;;;;;;30.83;7.30;;;8.80;99.90;;;;;;5053129;28;20016;-74
2022/01/27 08:24:28;;;;;;;25.48;6.40;;;8.80;99.90;;;;;;5052649;28;20029;-72
2022/01/27 08:27:00;;;;;;;26.70;7.20;;;8.80;99.90;;;;;;5050556;28;20032;-73
2022/01/27 08:29:35;;;;;;;28.00;8.18;;;8.80;99.90;;;;;;5051880;28;20061;-74
2022/01/27 08:32:02;;;;;;;29.50;6.60;;;8.90;99.90;;;;;;5051791;28;20071;-71
2022/01/27 08:34:41;;;;;;;27.13;7.38;;;8.90;99.90;;;;;;5052597;28;20033;-72
2022/01/27 08:37:18;;;;;;;23.77;7.28;;;8.90;99.90;;;;;;5034420;28;20041;-74
2022/01/27 08:39:46;;;;;;;23.70;7.25;;;9.00;99.90;;;;;;5034599;28;20155;-74
2022/01/27 08:42:12;;;;;;;20.45;6.43;;;9.00;99.90;;;;;;5034203;28;20025;-72
2022/01/27 08:44:38;;;;;;;29.42;6.05;;;9.10;99.90;;;;;;5052116;28;20028;-73
2022/01/27 08:47:04;;;;;;;32.67;7.00;;;9.10;99.90;;;;;;5052694;28;20025;-73
2022/01/27 08:49:30;;;;;;;25.65;6.50;;;9.10;99.90;;;;;;5034065;28;20102;-73
2022/01/27 08:51:56;;;;;;;22.38;5.85;;;9.20;99.90;;;;;;5052863;28;20028;-71
2022/01/27 08:54:24;;;;;;;21.02;5.35;;;9.20;99.90;;;;;;5034633;28;20021;-71
2022/01/27 08:56:49;;;;;;;28.05;7.20;;;9.30;99.90;;;;;;5052346;28;20037;-71
2022/01/27 08:59:16;;;;;;;21.00;5.50;;;9.30;99.90;;;;;;5052209;28;20459;-72
2022/01/27 09:01:42;;;;;;;25.02;5.45;;;9.30;99.90;;;;;;5052329;28;20112;-72
2022/01/27 09:04:09;;;;;;;23.55;5.53;;;9.30;99.90;;;;;;5042069;28;20155;-71
2022/01/27 09:06:36;;;;;;;21.48;5.03;;;9.40;99.90;;;;;;5071751;28;20043;-72
2022/01/27 09:09:03;;;;;;;19.70;5.13;;;9.40;99.90;;;;;;5072298;28;20025;-70
2022/01/27 09:11:31;;;;;;;26.20;6.38;;;9.50;99.90;;;;;;5072047;28;20115;-73
2022/01/27 09:13:57;;;;;;;26.70;6.72;;;9.50;99.90;;;;;;5071512;28;20059;-74
2022/01/27 09:16:28;;;;;;;26.25;5.75;;;9.50;99.90;;;;;;5071453;28;20116;-71
2022/01/27 09:18:57;;;;;;;19.80;5.53;;;9.60;99.90;;;;;;5072396;28;20016;-73
2022/01/27 09:21:26;;;;;;;24.98;5.93;;;9.50;99.90;;;;;;5072355;28;20064;-73
2022/01/27 09:23:53;;;;;;;21.73;4.88;;;9.50;99.90;;;;;;5072138;28;20128;-72
2022/01/27 09:29:03;;;;;;;17.65;4.65;;;9.60;99.90;;;;;;5076288;28;20081;-70
2022/01/27 09:31:29;;;;;;;20.33;4.90;;;9.60;99.90;;;;;;5075734;28;20025;-70
2022/01/27 09:33:54;;;;;;;21.90;4.93;;;9.60;99.90;;;;;;5076144;28;20051;-73
2022/01/27 09:36:20;;;;;;;22.45;5.60;;;9.60;99.90;;;;;;5075747;28;20040;-71
2022/01/27 09:38:45;;;;;;;24.98;5.13;;;9.60;99.90;;;;;;5075971;28;20067;-70
2022/01/27 09:41:15;;;;;;;21.30;5.28;;;9.60;99.90;;;;;;5075831;28;20056;-72
2022/01/27 09:43:41;;;;;;;24.10;5.32;;;9.60;99.90;;;;;;5075661;28;20466;-72
2022/01/27 09:46:10;;;;;;;20.52;5.95;;;9.60;99.90;;;;;;5057745;28;20036;-70
2022/01/27 09:48:40;;;;;;;28.40;6.70;;;9.60;99.90;;;;;;5075442;28;20031;-71
2022/01/27 09:53:51;;;;;;;20.13;4.50;;;9.70;99.90;;;;;;5075910;28;20033;-72
2022/01/27 09:56:17;;;;;;;17.92;4.75;;;9.70;99.90;;;;;;5075545;28;20041;-71
2022/01/27 09:58:44;;;;;;;25.58;5.35;;;9.70;99.90;;;;;;5075538;28;20490;-70
2022/01/27 10:01:09;;;;;;;23.27;5.50;;;9.70;99.90;;;;;;5057343;28;20047;-70
2022/01/27 10:04:01;;;;;;;19.67;4.45;;;9.70;99.90;;;;;;5074898;28;20474;-71
2022/01/27 10:06:31;;;;;;;21.63;4.60;;;9.80;99.90;;;;;;5074968;28;20034;-70
2022/01/27 10:09:15;;;;;;;20.83;4.82;;;9.90;99.90;;;;;;5056915;28;20111;-69
2022/01/27 10:11:44;;;;;;;23.42;5.22;;;9.90;99.90;;;;;;5074787;28;20400;-72
2022/01/27 10:14:23;;;;;;;21.23;4.18;;;9.90;99.90;;;;;;5075114;28;20020;-72
2022/01/27 10:16:59;;;;;;;22.52;5.20;;;10.00;99.90;;;;;;5075149;28;20119;-70
2022/01/27 10:19:26;;;;;;;25.77;5.10;;;10.00;99.90;;;;;;5075014;28;20027;-72
2022/01/27 10:22:00;;;;;;;19.20;5.13;;;10.10;99.90;;;;;;5074805;28;20024;-71
2022/01/27 10:24:28;;;;;;;23.40;4.68;;;10.10;99.90;;;;;;5075026;28;20028;-71
2022/01/27 10:32:47;;;;;;;23.75;5.10;;;10.10;99.90;;;;;;5074790;28;20025;-73
2022/01/27 10:35:15;;;;;;;20.92;4.85;;;10.10;99.90;;;;;;5074712;28;20031;-72
2022/01/27 10:38:06;;;;;;;19.27;4.80;;;10.10;99.90;;;;;;5074568;28;20067;-71
2022/01/27 10:40:37;;;;;;;24.27;5.30;;;10.10;99.90;;;;;;5074751;28;20060;-71
2022/01/27 10:43:13;;;;;;;24.50;4.78;;;10.00;99.90;;;;;;5074445;28;20253;-74
2022/01/27 10:45:58;;;;;;;23.10;5.45;;;10.00;99.90;;;;;;5074962;28;20112;-73
2022/01/27 10:48:27;;;;;;;17.60;5.20;;;9.90;99.90;;;;;;5074723;28;20020;-71
2022/01/27 10:51:14;;;;;;;22.40;4.30;;;9.90;99.90;;;;;;5056647;28;20395;-74
2022/01/27 10:53:56;;;;;;;19.85;4.95;;;10.00;99.90;;;;;;5074558;28;20482;-72
2022/01/27 10:56:25;;;;;;;28.15;5.63;;;10.10;99.90;;;;;;5074735;28;20037;-71
2022/01/27 10:58:52;;;;;;;21.92;5.50;;;10.10;99.90;;;;;;5065212;28;20033;-75
2022/01/27 11:01:23;;;;;;;22.90;5.15;;;10.10;99.90;;;;;;5054465;28;20027;-73
2022/01/27 11:04:04;;;;;;;23.35;6.25;;;10.10;99.90;;;;;;5054637;28;20052;-71
2022/01/27 11:06:32;;;;;;;18.85;4.25;;;10.10;99.90;;;;;;5036599;28;20116;-70
2022/01/27 11:09:01;;;;;;;24.00;4.45;;;10.10;99.90;;;;;;5036439;28;20033;-71
2022/01/27 11:11:27;;;;;;;20.73;4.45;;;10.10;99.90;;;;;;5054458;28;20029;-70
2022/01/27 11:13:54;;;;;;;26.95;5.45;;;10.10;99.90;;;;;;5054171;28;20031;-72
2022/01/27 11:16:30;;;;;;;21.50;4.50;;;10.10;99.90;;;;;;5053883;28;20147;-70
2022/01/27 11:19:12;;;;;;;19.90;5.20;;;10.00;99.90;;;;;;5054409;28;20032;-71
2022/01/27 11:21:41;;;;;;;20.98;5.00;;;10.00;99.90;;;;;;5054569;28;20029;-74
2022/01/27 11:24:34;;;;;;;25.67;5.75;;;10.00;99.90;;;;;;5054354;28;20025;-71
2022/01/27 11:27:00;;;;;;;31.80;5.72;;;10.00;99.90;;;;;;5053397;28;20103;-69
2022/01/27 11:29:28;;;;;;;20.60;4.93;;;10.00;99.90;;;;;;5053956;28;20462;-73
2022/01/27 11:32:16;;;;;;;20.98;4.72;;;10.00;99.90;;;;;;5053626;28;20387;-72
2022/01/27 11:35:00;;;;;;;49.22;18.23;;;10.10;99.90;;;;;;5053510;28;20078;-75
2022/01/27 11:37:35;;;;;;;15.32;5.30;;;10.20;99.90;;;;;;5052987;28;20041;-72
2022/01/27 11:40:08;;;;;;;19.08;5.90;;;10.30;99.90;;;;;;5054119;28;20410;-74
2022/01/27 11:42:37;;;;;;;18.20;4.90;;;10.40;99.90;;;;;;5053795;28;20029;-73
2022/01/27 11:45:37;;;;;;;24.50;4.65;;;10.40;99.90;;;;;;5054014;28;20108;-71
2022/01/27 11:48:18;;;;;;;21.98;4.45;;;10.40;99.90;;;;;;4999595;28;20040;-73
2022/01/27 11:51:06;;;;;;;17.38;5.53;;;10.40;99.90;;;;;;5057361;28;20494;-74
2022/01/27 11:53:33;;;;;;;16.27;4.50;;;10.40;99.90;;;;;;5055535;28;20079;-73
2022/01/27 11:56:15;;;;;;;18.98;4.22;;;10.30;99.90;;;;;;5053217;28;20033;-74
2022/01/27 11:58:48;;;;;;;20.38;4.57;;;10.40;99.90;;;;;;5053551;28;20483;-73
2022/01/27 12:01:28;;;;;;;16.45;4.90;;;10.50;99.90;;;;;;5053728;28;20033;-75
2022/01/27 12:04:06;;;;;;;22.13;3.33;;;10.60;99.90;;;;;;5053684;28;20025;-73
2022/01/27 12:06:35;;;;;;;20.30;4.45;;;10.70;99.90;;;;;;5053350;28;20018;-75
2022/01/27 12:09:19;;;;;;;21.88;4.10;;;10.90;99.90;;;;;;5053303;28;20029;-74
2022/01/27 12:11:47;;;;;;;16.35;4.00;;;10.90;99.90;;;;;;5035432;28;20037;-75
2022/01/27 12:14:15;;;;;;;13.75;3.92;;;10.90;99.90;;;;;;5053143;28;20021;-75
2022/01/27 12:16:54;;;;;;;18.25;4.18;;;10.90;99.90;;;;;;5053096;28;20063;-72
2022/01/27 12:19:19;;;;;;;21.13;4.45;;;11.00;99.90;;;;;;5053130;28;20025;-75
2022/01/27 12:21:53;;;;;;;16.58;4.50;;;11.00;99.90;;;;;;5053321;28;20356;-73
2022/01/27 12:24:25;;;;;;;25.30;4.57;;;11.10;99.90;;;;;;5052397;28;20017;-72
2022/01/27 12:27:05;;;;;;;19.10;3.75;;;11.20;99.90;;;;;;5035185;28;20111;-74
2022/01/27 12:29:33;;;;;;;13.90;3.03;;;11.30;99.90;;;;;;5052328;28;20374;-73
2022/01/27 12:32:04;;;;;;;21.92;4.20;;;11.40;99.90;;;;;;5035051;28;20032;-73
2022/01/27 12:34:30;;;;;;;20.92;4.03;;;11.40;99.90;;;;;;5052268;28;20025;-75
2022/01/27 12:37:04;;;;;;;16.30;3.38;;;11.50;99.90;;;;;;5052727;28;20052;-74
2022/01/27 12:39:36;;;;;;;27.90;5.03;;;11.60;99.90;;;;;;5052670;28;20109;-73
2022/01/27 12:42:05;;;;;;;27.05;4.95;;;11.70;99.90;;;;;;5052729;28;20021;-74
2022/01/27 12:44:31;;;;;;;44.92;15.90;;;11.70;99.90;;;;;;5054665;28;20021;-74
2022/01/27 12:47:08;;;;;;;20.42;4.55;;;11.80;99.90;;;;;;5060398;28;20027;-75
2022/01/27 12:49:39;;;;;;;19.70;4.13;;;11.80;99.90;;;;;;5054561;28;20053;-73
2022/01/27 12:52:09;;;;;;;19.17;3.67;;;11.80;99.90;;;;;;5057226;28;20083;-71
2022/01/27 12:54:38;;;;;;;19.17;4.13;;;11.80;99.90;;;;;;5052862;28;20032;-73
2022/01/27 12:57:05;;;;;;;17.95;3.53;;;11.70;99.90;;;;;;5052027;28;20106;-73
2022/01/27 12:59:37;;;;;;;18.45;4.88;;;11.60;99.90;;;;;;5059033;28;20028;-71
2022/01/27 13:02:06;;;;;;;14.40;3.70;;;11.60;99.90;;;;;;5072016;28;20044;-74
2022/01/27 13:04:32;;;;;;;21.27;4.35;;;11.50;99.90;;;;;;5072603;28;20033;-74
2022/01/27 13:06:59;;;;;;;13.85;2.83;;;11.50;99.90;;;;;;5071820;28;20175;-74
2022/01/27 13:09:27;;;;;;;17.30;3.90;;;11.60;99.90;;;;;;5072541;28;20032;-74
2022/01/27 13:11:55;;;;;;;15.73;3.30;;;11.70;99.90;;;;;;5072652;28;20438;-72
2022/01/27 13:14:21;;;;;;;23.80;6.15;;;11.70;99.90;;;;;;5054800;28;20370;-72
2022/01/27 13:16:57;;;;;;;17.88;4.00;;;11.70;99.90;;;;;;5072409;28;20048;-72
2022/01/27 13:19:45;;;;;;;13.23;3.30;;;11.60;99.90;;;;;;5072224;28;20032;-73
2022/01/27 13:22:16;;;;;;;14.30;3.30;;;11.60;99.90;;;;;;5072425;28;20052;-73
2022/01/27 13:24:46;;;;;;;16.65;3.58;;;11.60;99.90;;;;;;5072562;28;20028;-74
2022/01/27 13:27:13;;;;;;;23.73;5.00;;;11.60;99.90;;;;;;5054037;28;20032;-72
2022/01/27 13:29:59;;;;;;;16.42;3.38;;;11.50;99.90;;;;;;5071930;28;20020;-72